Time;durP1;ratioP1;P1;durP2;ratioP2;P2;SDS_P1;SDS_P2;PMS_P1;PMS_P2;Temp;Humidity;BMP_temperature;BMP_pressure;BME280_temperature;BME280_humidity;BME280_pressure;Samples;Min_cycle;Max_cycle;Signal;HPM_P1;HPM_P2
2021/09/10 00:01:13;;;;;;;23.90;21.37;;;21.80;99.90;;;;;;6096785;23;20754;-73
2021/09/10 00:03:40;;;;;;;20.67;18.67;;;21.80;99.90;;;;;;6097099;23;20862;-73
2021/09/10 00:06:07;;;;;;;20.40;18.30;;;21.80;99.90;;;;;;6096806;23;20957;-72
2021/09/10 00:08:34;;;;;;;21.07;18.77;;;21.80;99.90;;;;;;6097019;23;20426;-72
2021/09/10 00:11:03;;;;;;;21.07;18.67;;;21.70;99.90;;;;;;6098138;23;20438;-71
2021/09/10 00:13:30;;;;;;;19.73;17.60;;;21.70;99.90;;;;;;6098662;23;20402;-73
2021/09/10 00:15:57;;;;;;;23.43;19.27;;;21.70;99.90;;;;;;6106402;23;20480;-70
2021/09/10 00:18:24;;;;;;;21.87;19.67;;;21.70;99.90;;;;;;6102087;23;20406;-72
2021/09/10 00:20:51;;;;;;;21.90;19.50;;;21.70;99.90;;;;;;6098009;23;20401;-72
2021/09/10 00:23:19;;;;;;;23.50;20.77;;;21.70;99.90;;;;;;6097609;23;20494;-74
2021/09/10 00:25:46;;;;;;;22.77;20.43;;;21.70;99.90;;;;;;6095919;23;20410;-76
2021/09/10 00:28:16;;;;;;;27.10;21.10;;;21.60;99.90;;;;;;6097407;23;20386;-75
2021/09/10 00:30:43;;;;;;;27.00;20.73;;;21.60;99.90;;;;;;6096969;23;20456;-76
2021/09/10 00:33:10;;;;;;;23.17;20.70;;;21.50;99.90;;;;;;6097027;23;20524;-72
2021/09/10 00:35:37;;;;;;;23.47;20.80;;;21.40;99.90;;;;;;6096367;23;20407;-72
2021/09/10 00:38:04;;;;;;;34.23;23.00;;;21.40;99.90;;;;;;6097228;23;20404;-73
2021/09/10 00:40:31;;;;;;;21.37;19.17;;;21.30;99.90;;;;;;6097035;23;20905;-75
2021/09/10 00:42:58;;;;;;;29.27;23.80;;;21.30;99.90;;;;;;6096984;23;20444;-72
2021/09/10 00:45:27;;;;;;;24.67;22.07;;;21.30;99.90;;;;;;6096377;23;20485;-73
2021/09/10 00:47:55;;;;;;;21.90;19.60;;;21.20;99.90;;;;;;6094735;23;20401;-74
2021/09/10 00:50:22;;;;;;;25.87;23.17;;;21.20;99.90;;;;;;6097541;23;20436;-71
2021/09/10 00:52:49;;;;;;;23.57;21.17;;;21.20;99.90;;;;;;6096602;23;20441;-69
2021/09/10 00:55:24;;;;;;;23.77;21.37;;;21.10;99.90;;;;;;6095824;23;20884;-76
2021/09/10 00:57:52;;;;;;;27.23;24.10;;;21.10;99.90;;;;;;6096470;23;20394;-72
2021/09/10 01:00:19;;;;;;;24.33;22.00;;;21.00;99.90;;;;;;6097051;23;20393;-75
2021/09/10 01:02:48;;;;;;;27.10;24.20;;;21.00;99.90;;;;;;6096716;23;20441;-75
2021/09/10 01:05:16;;;;;;;25.70;23.07;;;21.00;99.90;;;;;;6095937;23;20473;-73
2021/09/10 01:07:44;;;;;;;28.90;25.90;;;21.00;99.90;;;;;;6097016;23;20426;-75
2021/09/10 01:10:12;;;;;;;26.93;23.60;;;20.90;99.90;;;;;;6097019;23;20735;-74
2021/09/10 01:12:41;;;;;;;28.63;23.40;;;20.90;99.90;;;;;;6096867;23;20426;-72
2021/09/10 01:15:09;;;;;;;27.90;24.83;;;20.80;99.90;;;;;;6096774;23;20400;-73
2021/09/10 01:17:37;;;;;;;34.60;27.03;;;20.80;99.90;;;;;;6096707;23;20406;-72
2021/09/10 01:20:08;;;;;;;27.63;24.67;;;20.80;99.90;;;;;;6097182;23;20397;-75
2021/09/10 01:22:37;;;;;;;31.90;26.90;;;20.80;99.90;;;;;;6096606;23;20430;-76
2021/09/10 01:25:11;;;;;;;30.47;27.17;;;20.70;99.90;;;;;;6095884;23;20396;-73
2021/09/10 01:30:16;;;;;;;29.53;26.27;;;20.70;99.90;;;;;;6184711;23;20420;-74
2021/09/10 01:32:43;;;;;;;27.13;24.43;;;20.70;99.90;;;;;;6184963;23;20444;-72
2021/09/10 01:35:11;;;;;;;33.03;29.67;;;20.70;99.90;;;;;;6185448;23;20403;-71
2021/09/10 01:37:46;;;;;;;31.83;28.47;;;20.80;99.90;;;;;;6185918;23;20394;-72
2021/09/10 01:40:15;;;;;;;37.03;31.13;;;20.80;99.90;;;;;;6186131;23;20486;-72
2021/09/10 01:42:42;;;;;;;37.13;31.53;;;20.80;99.90;;;;;;6185521;23;20722;-73
2021/09/10 01:45:11;;;;;;;39.93;32.07;;;20.80;99.90;;;;;;6185040;23;20768;-74
2021/09/10 01:47:39;;;;;;;36.30;32.23;;;20.80;99.90;;;;;;6185110;23;20391;-72
2021/09/10 01:50:09;;;;;;;34.23;30.53;;;20.80;99.90;;;;;;6186093;23;20947;-72
2021/09/10 01:52:37;;;;;;;37.60;32.90;;;20.90;99.90;;;;;;6185844;23;20440;-72
2021/09/10 01:55:06;;;;;;;40.10;35.70;;;20.90;99.90;;;;;;6185685;23;20392;-72
2021/09/10 01:57:34;;;;;;;34.20;30.57;;;20.90;99.90;;;;;;6185956;23;20393;-74
2021/09/10 02:00:03;;;;;;;37.43;33.80;;;20.90;99.90;;;;;;6185682;23;20753;-74
2021/09/10 02:02:30;;;;;;;37.47;32.10;;;21.00;99.90;;;;;;6184993;23;20441;-72
2021/09/10 02:04:58;;;;;;;44.27;37.00;;;21.00;99.90;;;;;;6184729;23;20705;-72
2021/09/10 02:07:25;;;;;;;43.03;37.60;;;21.00;99.90;;;;;;6186125;23;20402;-75
2021/09/10 02:09:52;;;;;;;47.20;39.60;;;21.00;99.90;;;;;;6185598;23;20432;-73
2021/09/10 02:12:19;;;;;;;49.30;41.30;;;21.10;99.90;;;;;;6185742;23;20924;-73
2021/09/10 02:14:47;;;;;;;45.83;37.70;;;21.10;99.90;;;;;;6185533;23;20400;-74
2021/09/10 02:17:15;;;;;;;46.57;40.63;;;21.10;99.90;;;;;;6188162;23;20395;-71
2021/09/10 02:19:42;;;;;;;43.53;37.70;;;20.90;99.90;;;;;;6187385;23;20836;-73
2021/09/10 02:22:09;;;;;;;45.50;39.00;;;21.00;99.90;;;;;;6186808;23;20922;-75
2021/09/10 02:24:36;;;;;;;40.00;34.37;;;21.00;99.90;;;;;;6186357;23;20414;-76
2021/09/10 02:27:04;;;;;;;47.50;40.40;;;21.10;99.90;;;;;;6187235;23;20394;-73
2021/09/10 02:29:32;;;;;;;42.67;36.40;;;21.10;99.90;;;;;;6186738;23;20420;-73
2021/09/10 02:32:00;;;;;;;38.63;34.63;;;21.20;99.90;;;;;;6186797;23;20476;-75
2021/09/10 02:34:27;;;;;;;37.87;33.70;;;21.20;99.90;;;;;;6186285;23;20400;-72
2021/09/10 02:36:54;;;;;;;37.53;32.80;;;21.20;99.90;;;;;;6186931;23;20394;-72
2021/09/10 02:39:21;;;;;;;40.07;33.53;;;21.20;99.90;;;;;;6189604;23;20402;-72
2021/09/10 02:41:49;;;;;;;42.50;37.03;;;21.10;99.90;;;;;;6189254;23;20425;-73
2021/09/10 02:44:16;;;;;;;46.97;40.53;;;21.10;99.90;;;;;;6186622;23;20395;-75
2021/09/10 02:46:43;;;;;;;48.27;38.90;;;21.00;99.90;;;;;;6186851;23;20399;-75
2021/09/10 02:49:12;;;;;;;47.00;41.23;;;20.80;99.90;;;;;;6186649;23;20859;-73
2021/09/10 02:51:39;;;;;;;46.57;41.47;;;20.80;99.90;;;;;;6186553;23;20461;-73
2021/09/10 02:54:06;;;;;;;49.93;42.80;;;20.70;99.90;;;;;;6186315;23;20394;-74
2021/09/10 02:56:34;;;;;;;48.33;41.60;;;20.70;99.90;;;;;;6186893;23;20420;-73
2021/09/10 02:59:01;;;;;;;52.70;42.03;;;20.60;99.90;;;;;;6187276;23;20453;-71
2021/09/10 03:01:28;;;;;;;53.97;44.10;;;20.60;99.90;;;;;;6194873;23;20426;-71
2021/09/10 03:03:55;;;;;;;54.70;48.70;;;20.60;99.90;;;;;;6190043;23;20402;-74
2021/09/10 03:06:24;;;;;;;49.70;43.57;;;20.60;99.90;;;;;;6186329;23;20406;-73
2021/09/10 03:08:51;;;;;;;51.63;44.50;;;20.60;99.90;;;;;;6186638;23;20401;-75
2021/09/10 03:11:18;;;;;;;59.67;48.90;;;20.70;99.90;;;;;;6185819;23;20948;-75
2021/09/10 03:13:45;;;;;;;55.80;47.70;;;20.60;99.90;;;;;;6186788;23;20392;-75
2021/09/10 03:16:12;;;;;;;48.27;42.90;;;20.60;99.90;;;;;;6185258;23;20814;-74
2021/09/10 03:18:40;;;;;;;67.13;52.30;;;20.70;99.90;;;;;;6185941;23;20410;-74
2021/09/10 03:21:07;;;;;;;61.77;51.03;;;20.60;99.90;;;;;;6186524;23;20869;-74
2021/09/10 03:23:35;;;;;;;56.33;47.90;;;20.60;99.90;;;;;;6185977;23;20723;-73
2021/09/10 03:26:02;;;;;;;50.90;43.03;;;20.50;99.90;;;;;;6185192;23;20390;-71
2021/09/10 03:28:29;;;;;;;50.47;43.97;;;20.40;99.90;;;;;;6185863;23;20458;-74
2021/09/10 03:30:57;;;;;;;59.50;47.17;;;20.40;99.90;;;;;;6185943;23;20440;-74
2021/09/10 03:33:24;;;;;;;47.10;39.63;;;20.40;99.90;;;;;;6186695;23;20396;-74
2021/09/10 03:35:51;;;;;;;46.70;40.67;;;20.30;99.90;;;;;;6185448;23;20398;-72
2021/09/10 03:38:18;;;;;;;47.33;39.67;;;20.30;99.90;;;;;;6186604;23;20389;-72
2021/09/10 03:40:46;;;;;;;51.57;43.37;;;20.30;99.90;;;;;;6185547;23;20385;-72
2021/09/10 03:43:14;;;;;;;46.40;40.03;;;20.30;99.90;;;;;;6186258;23;20406;-73
2021/09/10 03:45:41;;;;;;;45.10;39.20;;;20.30;99.90;;;;;;6184816;23;20392;-74
2021/09/10 03:48:08;;;;;;;52.77;41.33;;;20.30;99.90;;;;;;6186467;23;20402;-72
2021/09/10 03:50:35;;;;;;;46.00;39.27;;;20.30;99.90;;;;;;6185311;23;20430;-73
2021/09/10 03:53:02;;;;;;;57.73;43.50;;;20.30;99.90;;;;;;6184853;23;20431;-73
2021/09/10 03:55:29;;;;;;;53.70;43.60;;;20.30;99.90;;;;;;6185156;23;20735;-74
2021/09/10 03:57:58;;;;;;;63.43;48.40;;;20.20;99.90;;;;;;6184504;23;20400;-73
2021/09/10 04:00:25;;;;;;;66.57;45.13;;;20.20;99.90;;;;;;6185428;23;20856;-72
2021/09/10 04:02:52;;;;;;;61.17;49.97;;;20.20;99.90;;;;;;6185677;23;20458;-73
2021/09/10 04:05:19;;;;;;;56.90;45.50;;;20.20;99.90;;;;;;6185186;23;20404;-72
2021/09/10 04:07:46;;;;;;;69.57;52.30;;;20.20;99.90;;;;;;6186045;23;20400;-73
2021/09/10 04:10:13;;;;;;;54.73;47.87;;;20.20;99.90;;;;;;6185416;23;20397;-73
2021/09/10 04:12:40;;;;;;;68.27;52.47;;;20.20;99.90;;;;;;6185533;23;20435;-73
2021/09/10 04:15:11;;;;;;;85.83;60.47;;;20.20;99.90;;;;;;6185115;23;20699;-74
2021/09/10 04:17:38;;;;;;;98.33;61.47;;;20.20;99.90;;;;;;6185976;23;20392;-74
2021/09/10 04:20:07;;;;;;;101.50;61.50;;;20.10;99.90;;;;;;6185701;23;20393;-73
2021/09/10 04:22:34;;;;;;;60.27;47.03;;;19.90;99.90;;;;;;6185190;23;20443;-72
2021/09/10 04:25:01;;;;;;;54.57;43.00;;;19.90;99.90;;;;;;6184811;23;20852;-71
2021/09/10 04:27:28;;;;;;;76.57;54.87;;;19.90;99.90;;;;;;6185461;23;20400;-72
2021/09/10 04:29:57;;;;;;;93.37;59.10;;;19.80;99.90;;;;;;6184922;23;20420;-72
2021/09/10 04:32:25;;;;;;;57.23;45.30;;;19.70;99.90;;;;;;6184802;23;20447;-71
2021/09/10 04:34:54;;;;;;;68.77;50.63;;;19.70;99.90;;;;;;6184494;23;20392;-71
2021/09/10 04:37:23;;;;;;;88.53;57.50;;;19.60;99.90;;;;;;6185045;23;20404;-71
2021/09/10 04:39:50;;;;;;;75.90;55.20;;;19.60;99.90;;;;;;6184362;23;20392;-71
2021/09/10 04:42:17;;;;;;;83.07;57.03;;;19.60;99.90;;;;;;6184625;23;20433;-72
2021/09/10 04:44:44;;;;;;;81.67;58.07;;;19.60;99.90;;;;;;6184428;23;20412;-72
2021/09/10 04:47:11;;;;;;;82.20;62.00;;;19.70;99.90;;;;;;6185734;23;20392;-72
2021/09/10 04:49:41;;;;;;;80.90;59.87;;;19.70;99.90;;;;;;6184702;23;20401;-72
2021/09/10 04:52:09;;;;;;;81.40;62.87;;;19.70;99.90;;;;;;6185099;23;20462;-72
2021/09/10 04:54:36;;;;;;;89.53;61.60;;;19.70;99.90;;;;;;6184763;23;20392;-71
2021/09/10 04:57:03;;;;;;;88.90;65.40;;;19.60;99.90;;;;;;6185694;23;20399;-72
2021/09/10 04:59:31;;;;;;;90.53;65.47;;;19.60;99.90;;;;;;6184888;23;20398;-72
2021/09/10 05:01:58;;;;;;;95.20;68.50;;;19.60;99.90;;;;;;6185321;23;20436;-71
2021/09/10 05:04:26;;;;;;;103.60;73.93;;;19.60;99.90;;;;;;6185285;23;20396;-71
2021/09/10 05:06:54;;;;;;;110.83;75.80;;;19.60;99.90;;;;;;6184585;23;20880;-71
2021/09/10 05:09:22;;;;;;;80.73;61.70;;;19.60;99.90;;;;;;6184867;23;20396;-72
2021/09/10 05:11:50;;;;;;;103.13;67.17;;;19.60;99.90;;;;;;6183739;23;20522;-71
2021/09/10 05:14:17;;;;;;;96.40;65.57;;;19.70;99.90;;;;;;6184404;23;20403;-72
2021/09/10 05:16:44;;;;;;;89.70;69.37;;;19.60;99.90;;;;;;6185071;23;20722;-72
2021/09/10 05:19:12;;;;;;;102.50;72.37;;;19.60;99.90;;;;;;6185011;23;20979;-71
2021/09/10 05:21:39;;;;;;;133.93;80.40;;;19.60;99.90;;;;;;6184810;23;20854;-70
2021/09/10 05:24:08;;;;;;;85.07;63.50;;;19.60;99.90;;;;;;6185277;23;20715;-71
2021/09/10 05:26:35;;;;;;;89.60;65.53;;;19.60;99.90;;;;;;6184541;23;20398;-71
2021/09/10 05:29:02;;;;;;;117.63;77.53;;;19.60;99.90;;;;;;6184189;23;20458;-71
2021/09/10 05:31:30;;;;;;;104.77;81.73;;;19.60;99.90;;;;;;6184331;23;20480;-71
2021/09/10 05:33:57;;;;;;;107.50;67.80;;;19.70;99.90;;;;;;6184253;23;20461;-72
2021/09/10 05:36:24;;;;;;;107.70;78.60;;;19.70;99.90;;;;;;6187820;23;20402;-72
2021/09/10 05:38:51;;;;;;;99.10;73.70;;;19.70;99.90;;;;;;6187007;23;20865;-71
2021/09/10 05:41:20;;;;;;;114.13;73.67;;;19.70;99.90;;;;;;6184277;23;20431;-71
2021/09/10 05:43:48;;;;;;;103.63;73.87;;;19.70;99.90;;;;;;6184531;23;20401;-70
2021/09/10 05:46:15;;;;;;;82.20;65.07;;;19.70;99.90;;;;;;6184181;23;20446;-71
2021/09/10 05:48:42;;;;;;;72.23;57.83;;;19.60;99.90;;;;;;6185127;23;20396;-71
2021/09/10 05:51:11;;;;;;;71.60;56.13;;;19.70;99.90;;;;;;6187269;23;20527;-71
2021/09/10 05:53:39;;;;;;;79.17;56.57;;;19.70;99.90;;;;;;6188068;23;20432;-72
2021/09/10 05:56:06;;;;;;;63.97;47.03;;;19.70;99.90;;;;;;6187504;23;20722;-71
2021/09/10 05:58:35;;;;;;;84.40;62.47;;;19.70;99.90;;;;;;6187597;23;20392;-71
2021/09/10 06:01:02;;;;;;;78.87;59.93;;;19.70;99.90;;;;;;6187524;23;20396;-71
2021/09/10 06:03:29;;;;;;;62.90;50.90;;;19.70;99.90;;;;;;6187812;23;20408;-72
2021/09/10 06:05:56;;;;;;;80.77;60.07;;;19.80;99.90;;;;;;6187001;23;20397;-72
2021/09/10 06:08:23;;;;;;;72.23;56.57;;;19.80;99.90;;;;;;6187087;23;20398;-71
2021/09/10 06:10:51;;;;;;;92.77;67.63;;;19.80;99.90;;;;;;6187280;23;20392;-70
2021/09/10 06:13:19;;;;;;;82.83;60.30;;;19.80;99.90;;;;;;6187829;23;20396;-70
2021/09/10 06:15:47;;;;;;;110.83;64.93;;;19.80;99.90;;;;;;6186109;23;20396;-70
2021/09/10 06:18:15;;;;;;;115.00;62.50;;;19.80;99.90;;;;;;6187761;23;20463;-71
2021/09/10 06:20:44;;;;;;;123.80;64.93;;;19.70;99.90;;;;;;6187231;23;20394;-72
2021/09/10 06:23:11;;;;;;;87.63;56.70;;;19.70;99.90;;;;;;6171919;23;20564;-77
2021/09/10 06:25:38;;;;;;;81.30;54.50;;;19.60;99.90;;;;;;6186399;23;20395;-73
2021/09/10 06:28:08;;;;;;;67.90;46.10;;;19.50;99.90;;;;;;6188273;23;20423;-77
2021/09/10 06:30:35;;;;;;;60.40;44.40;;;19.40;99.90;;;;;;6188378;23;20395;-76
2021/09/10 06:33:07;;;;;;;46.53;38.67;;;19.40;99.90;;;;;;6187995;23;20448;-75
2021/09/10 06:35:34;;;;;;;54.03;41.67;;;19.30;99.90;;;;;;6186807;23;20383;-72
2021/09/10 06:38:03;;;;;;;78.30;49.20;;;19.30;99.90;;;;;;6187699;23;20395;-77
2021/09/10 06:40:30;;;;;;;78.00;48.00;;;19.30;99.90;;;;;;6188185;23;20431;-77
2021/09/10 06:42:59;;;;;;;72.53;54.80;;;19.30;99.90;;;;;;6189206;23;20428;-78
2021/09/10 06:45:26;;;;;;;56.63;41.37;;;19.30;99.90;;;;;;6185856;23;20388;-74
2021/09/10 06:47:54;;;;;;;63.60;41.57;;;19.20;99.90;;;;;;6187623;23;20387;-75
2021/09/10 06:50:23;;;;;;;45.00;37.47;;;19.20;99.90;;;;;;6188228;23;20392;-73
2021/09/10 06:52:50;;;;;;;51.77;37.23;;;19.30;99.90;;;;;;6187270;23;20447;-74
2021/09/10 06:55:18;;;;;;;55.33;39.40;;;19.30;99.90;;;;;;6186272;23;20414;-74
2021/09/10 06:57:45;;;;;;;68.60;50.80;;;19.30;99.90;;;;;;6187004;23;20406;-76
2021/09/10 07:00:14;;;;;;;57.07;46.17;;;19.30;99.90;;;;;;6187639;23;20400;-72
2021/09/10 07:02:42;;;;;;;48.87;36.20;;;19.30;99.90;;;;;;6186496;23;20535;-75
2021/09/10 07:05:10;;;;;;;56.73;39.80;;;19.30;99.90;;;;;;6185645;23;20861;-74
2021/09/10 07:07:38;;;;;;;49.37;38.30;;;19.30;99.90;;;;;;6186320;23;20403;-75
2021/09/10 07:12:33;;;;;;;38.47;30.97;;;19.40;99.90;;;;;;6096064;23;20450;-76
2021/09/10 07:15:01;;;;;;;34.60;27.20;;;19.40;99.90;;;;;;6089550;23;20395;-75
2021/09/10 07:17:29;;;;;;;34.70;26.33;;;19.30;99.90;;;;;;6097870;23;20874;-75
2021/09/10 07:19:56;;;;;;;36.83;28.33;;;19.40;99.90;;;;;;6097243;23;20402;-77
2021/09/10 07:22:24;;;;;;;37.37;27.90;;;19.30;99.90;;;;;;6098783;23;20430;-75
2021/09/10 07:24:52;;;;;;;30.57;24.43;;;19.30;99.90;;;;;;6097896;23;20399;-74
2021/09/10 07:27:21;;;;;;;28.60;22.20;;;19.20;99.90;;;;;;6099267;23;20406;-78
2021/09/10 07:29:48;;;;;;;24.83;17.90;;;19.20;99.90;;;;;;6098866;23;20418;-76
2021/09/10 07:32:15;;;;;;;20.83;18.17;;;19.20;99.90;;;;;;6101392;23;20951;-74
2021/09/10 07:34:42;;;;;;;23.43;19.00;;;19.20;99.90;;;;;;6096647;23;20490;-73
2021/09/10 07:37:13;;;;;;;24.10;18.70;;;19.20;99.90;;;;;;6096916;23;20392;-77
2021/09/10 07:39:40;;;;;;;23.90;19.40;;;19.20;99.90;;;;;;6097661;23;20452;-75
2021/09/10 07:42:15;;;;;;;23.53;19.50;;;19.30;99.90;;;;;;6097077;23;20437;-73
2021/09/10 07:44:42;;;;;;;20.57;17.13;;;19.20;99.90;;;;;;6097572;23;20418;-73
2021/09/10 07:47:11;;;;;;;22.53;17.37;;;19.30;99.90;;;;;;6115116;23;20452;-73
2021/09/10 07:49:38;;;;;;;26.17;20.43;;;19.20;99.90;;;;;;6179165;23;20450;-77
2021/09/10 07:52:19;;;;;;;22.87;19.77;;;19.20;99.90;;;;;;6186368;23;20473;-79
2021/09/10 07:54:46;;;;;;;21.53;18.93;;;19.20;99.90;;;;;;6186458;23;20399;-75
2021/09/10 07:57:22;;;;;;;23.27;17.63;;;19.10;99.90;;;;;;6186010;23;20402;-77
2021/09/10 07:59:55;;;;;;;22.40;18.80;;;19.20;99.90;;;;;;6186086;23;20717;-79
2021/09/10 08:02:22;;;;;;;19.30;17.20;;;19.20;99.90;;;;;;6186560;23;20434;-72
2021/09/10 08:07:17;;;;;;;23.30;18.87;;;19.30;99.90;;;;;;6094582;23;20442;-77
2021/09/10 08:09:44;;;;;;;22.60;18.70;;;19.30;99.90;;;;;;6091010;23;20406;-72
2021/09/10 08:12:12;;;;;;;24.80;20.50;;;19.30;99.90;;;;;;6096775;23;20461;-73
2021/09/10 08:14:40;;;;;;;34.37;23.23;;;19.30;99.90;;;;;;6096432;23;20514;-73
2021/09/10 08:17:07;;;;;;;26.97;21.57;;;19.40;99.90;;;;;;6098626;23;20398;-75
2021/09/10 08:19:35;;;;;;;36.43;26.17;;;19.30;99.90;;;;;;6097796;23;20399;-73
2021/09/10 08:22:03;;;;;;;25.17;22.43;;;19.30;99.90;;;;;;6096807;23;20510;-75
2021/09/10 08:24:31;;;;;;;24.77;21.47;;;19.30;99.90;;;;;;6096768;23;20394;-77
2021/09/10 08:26:59;;;;;;;32.50;23.60;;;19.40;99.90;;;;;;6095123;23;20419;-76
2021/09/10 08:29:26;;;;;;;34.00;25.53;;;19.50;99.90;;;;;;6097044;23;20859;-77
2021/09/10 08:31:55;;;;;;;27.47;21.50;;;19.50;99.90;;;;;;6096120;23;20951;-74
2021/09/10 08:34:22;;;;;;;35.37;27.77;;;19.50;99.90;;;;;;6096999;23;20407;-73
2021/09/10 08:36:49;;;;;;;33.33;26.77;;;19.50;99.90;;;;;;6094490;23;20383;-72
2021/09/10 08:39:16;;;;;;;33.40;26.50;;;19.50;99.90;;;;;;6095015;23;20416;-74
2021/09/10 08:44:29;;;;;;;33.17;24.93;;;19.60;99.90;;;;;;6116562;23;20441;-76
2021/09/10 08:46:57;;;;;;;40.53;29.80;;;19.70;99.90;;;;;;6126007;23;20716;-73
2021/09/10 08:49:25;;;;;;;29.50;23.73;;;19.60;99.90;;;;;;6124570;23;20393;-75
2021/09/10 08:51:52;;;;;;;33.27;26.13;;;19.70;99.90;;;;;;6125826;23;20459;-74
2021/09/10 08:54:21;;;;;;;25.63;22.77;;;19.70;99.90;;;;;;6131428;23;20427;-75
2021/09/10 08:56:48;;;;;;;27.27;23.87;;;19.70;99.90;;;;;;6125693;23;20390;-77
2021/09/10 08:59:19;;;;;;;30.37;22.50;;;19.70;99.90;;;;;;6124784;23;20390;-75
2021/09/10 09:01:48;;;;;;;37.07;26.80;;;19.80;99.90;;;;;;6124471;23;20548;-73
2021/09/10 09:04:18;;;;;;;33.17;27.20;;;19.80;99.90;;;;;;6125511;23;20393;-73
2021/09/10 09:06:51;;;;;;;33.27;24.60;;;19.90;99.90;;;;;;6124175;23;20402;-77
2021/09/10 09:09:41;;;;;;;35.13;25.13;;;20.00;99.90;;;;;;6098651;23;20738;-72
2021/09/10 09:12:13;;;;;;;29.13;24.23;;;20.00;99.90;;;;;;6124092;23;20454;-72
2021/09/10 09:14:45;;;;;;;27.63;22.03;;;20.10;99.90;;;;;;6125267;23;20733;-72
2021/09/10 09:17:23;;;;;;;30.37;23.47;;;20.20;99.90;;;;;;6157215;23;20460;-71
2021/09/10 09:20:15;;;;;;;31.83;23.90;;;20.20;99.90;;;;;;6179085;23;20403;-80
2021/09/10 09:22:57;;;;;;;23.27;20.10;;;20.30;99.90;;;;;;6183991;23;20435;-76
2021/09/10 09:25:25;;;;;;;20.60;18.40;;;20.50;99.90;;;;;;6182640;23;20400;-83
2021/09/10 09:27:53;;;;;;;22.33;20.07;;;20.60;99.90;;;;;;6184714;23;20750;-77
2021/09/10 09:30:38;;;;;;;24.03;21.10;;;20.70;99.90;;;;;;6184054;23;20401;-78
2021/09/10 09:33:05;;;;;;;25.37;20.10;;;20.90;99.90;;;;;;6183867;23;20450;-79
2021/09/10 09:35:35;;;;;;;22.80;19.73;;;21.00;99.90;;;;;;6183086;23;20444;-72
2021/09/10 09:38:12;;;;;;;18.60;16.70;;;21.10;99.90;;;;;;6183932;23;20682;-72
2021/09/10 09:40:40;;;;;;;22.63;18.97;;;21.40;99.90;;;;;;6181538;23;20450;-73
2021/09/10 09:43:21;;;;;;;19.13;15.50;;;21.40;99.90;;;;;;6184627;23;20426;-73
2021/09/10 09:45:51;;;;;;;22.37;19.60;;;21.60;99.90;;;;;;6186035;23;20453;-74
2021/09/10 09:48:19;;;;;;;21.40;19.07;;;21.70;99.90;;;;;;6183621;23;20383;-73
2021/09/10 09:50:49;;;;;;;17.43;15.57;;;21.80;99.90;;;;;;6183597;23;20785;-74
2021/09/10 09:53:16;;;;;;;18.63;16.60;;;22.00;99.90;;;;;;6183916;23;20446;-73
2021/09/10 09:55:45;;;;;;;20.57;16.93;;;22.10;99.90;;;;;;6182554;23;20426;-75
2021/09/10 09:58:15;;;;;;;17.40;15.70;;;22.30;99.90;;;;;;6183434;23;20847;-74
2021/09/10 10:00:44;;;;;;;22.50;18.70;;;22.50;99.90;;;;;;6182660;23;20406;-75
2021/09/10 10:03:12;;;;;;;21.87;19.57;;;22.60;99.90;;;;;;6183534;23;20427;-71
2021/09/10 10:06:11;;;;;;;24.70;21.23;;;22.70;99.90;;;;;;6182925;23;20851;-73
2021/09/10 10:08:45;;;;;;;20.03;18.03;;;22.80;99.90;;;;;;6182507;23;20392;-76
2021/09/10 10:11:15;;;;;;;20.17;18.07;;;22.80;99.90;;;;;;6183250;23;20567;-77
2021/09/10 10:13:43;;;;;;;19.37;17.37;;;23.20;99.90;;;;;;6183899;23;20454;-79
2021/09/10 10:16:35;;;;;;;19.90;17.73;;;23.50;99.90;;;;;;6183792;23;20419;-77
2021/09/10 10:19:04;;;;;;;18.73;16.73;;;23.50;99.90;;;;;;6182849;23;20415;-78
2021/09/10 10:21:52;;;;;;;18.83;16.83;;;23.60;99.90;;;;;;6182788;23;20930;-77
2021/09/10 10:24:43;;;;;;;19.07;17.07;;;23.70;99.90;;;;;;6184569;23;20389;-74
2021/09/10 10:27:41;;;;;;;18.17;16.13;;;23.90;99.90;;;;;;6173119;23;20470;-74
2021/09/10 10:30:10;;;;;;;15.60;14.00;;;24.10;99.90;;;;;;6182391;23;20400;-73
2021/09/10 10:32:42;;;;;;;18.20;16.23;;;24.20;99.90;;;;;;6182786;23;20559;-74
2021/09/10 10:35:24;;;;;;;14.80;13.30;;;24.40;99.90;;;;;;6183268;23;20395;-74
2021/09/10 10:37:55;;;;;;;17.10;15.27;;;24.40;99.90;;;;;;6184100;23;20482;-73
2021/09/10 10:40:37;;;;;;;14.90;13.40;;;24.70;99.90;;;;;;6185346;23;20506;-73
2021/09/10 10:43:07;;;;;;;13.73;12.33;;;24.80;99.90;;;;;;6185981;23;20510;-73
2021/09/10 10:46:00;;;;;;;13.80;11.73;;;24.90;99.90;;;;;;6184785;23;20487;-73
2021/09/10 10:48:47;;;;;;;12.60;11.40;;;24.90;99.90;;;;;;6186225;23;20388;-73
2021/09/10 10:51:51;;;;;;;12.13;10.73;;;24.90;99.90;;;;;;6185102;23;20431;-73
2021/09/10 10:54:28;;;;;;;10.33;9.33;;;24.90;99.90;;;;;;6185927;23;20501;-73
2021/09/10 10:56:56;;;;;;;10.57;9.40;;;25.30;99.90;;;;;;6183493;23;20410;-72
2021/09/10 10:59:44;;;;;;;10.43;9.00;;;25.30;99.90;;;;;;6185204;23;20404;-72
2021/09/10 11:02:32;;;;;;;14.40;9.00;;;25.50;99.90;;;;;;6179660;23;20510;-72
2021/09/10 11:05:20;;;;;;;9.47;8.07;;;25.80;99.90;;;;;;6185993;23;20392;-72
2021/09/10 11:07:48;;;;;;;7.70;6.97;;;26.20;99.90;;;;;;6176651;23;20423;-72
2021/09/10 11:10:19;;;;;;;9.13;8.30;;;26.30;99.90;;;;;;6185404;23;20402;-73
2021/09/10 11:12:49;;;;;;;8.93;7.57;;;26.20;99.90;;;;;;6184812;23;20458;-74
2021/09/10 11:15:18;;;;;;;8.93;8.03;;;26.40;99.90;;;;;;6185028;23;20394;-72
2021/09/10 11:17:53;;;;;;;8.97;8.17;;;26.60;99.90;;;;;;6185372;23;20387;-74
2021/09/10 11:20:27;;;;;;;9.00;7.60;;;26.60;99.90;;;;;;6183879;23;20411;-74
2021/09/10 11:22:54;;;;;;;7.73;7.03;;;26.70;99.90;;;;;;6183809;23;20431;-72
2021/09/10 11:25:24;;;;;;;5.90;5.40;;;27.10;99.90;;;;;;6184410;23;20395;-73
2021/09/10 11:27:52;;;;;;;6.83;6.23;;;27.30;99.90;;;;;;6184647;23;20835;-72
2021/09/10 11:30:29;;;;;;;6.80;6.20;;;27.50;99.90;;;;;;6184457;23;20391;-72
2021/09/10 11:33:03;;;;;;;8.20;5.87;;;27.40;99.90;;;;;;6184642;23;20765;-73
2021/09/10 11:35:38;;;;;;;8.17;5.53;;;27.50;99.90;;;;;;6184299;23;20455;-72
2021/09/10 11:38:07;;;;;;;7.97;7.17;;;27.50;99.90;;;;;;6184797;23;20391;-72
2021/09/10 11:40:39;;;;;;;10.80;9.80;;;27.50;99.90;;;;;;6183594;23;20475;-72
2021/09/10 11:43:11;;;;;;;12.40;9.67;;;27.50;99.90;;;;;;6184985;23;20500;-72
2021/09/10 11:45:43;;;;;;;10.83;9.70;;;27.70;99.90;;;;;;6184677;23;20451;-73
2021/09/10 11:48:13;;;;;;;18.87;15.57;;;27.60;99.90;;;;;;6184811;23;20439;-73
2021/09/10 11:50:54;;;;;;;19.33;14.33;;;27.60;99.90;;;;;;6185143;23;20898;-72
2021/09/10 11:53:24;;;;;;;12.93;11.80;;;27.50;99.90;;;;;;6185004;23;20462;-72
2021/09/10 11:56:04;;;;;;;12.60;11.30;;;27.10;99.90;;;;;;6184236;23;20396;-72
2021/09/10 11:58:33;;;;;;;17.13;15.43;;;26.90;99.90;;;;;;6181976;23;20392;-76
2021/09/10 12:01:30;;;;;;;15.87;14.27;;;26.70;99.90;;;;;;6181262;23;20430;-78
2021/09/10 12:03:59;;;;;;;16.60;14.73;;;26.40;99.90;;;;;;6110772;23;20411;-81
2021/09/10 12:06:28;;;;;;;14.87;13.47;;;26.60;99.90;;;;;;6183670;23;20415;-72
2021/09/10 12:09:16;;;;;;;20.43;18.33;;;26.60;99.90;;;;;;6185113;23;20388;-75
2021/09/10 12:12:14;;;;;;;17.97;14.30;;;26.40;99.90;;;;;;6183854;23;20728;-70
2021/09/10 12:14:44;;;;;;;19.23;17.30;;;26.60;99.90;;;;;;6184395;23;20428;-71
2021/09/10 12:17:17;;;;;;;19.37;17.53;;;26.80;99.90;;;;;;6183160;23;20402;-72
2021/09/10 12:19:52;;;;;;;15.90;14.40;;;26.80;99.90;;;;;;6184071;23;20419;-70
2021/09/10 12:22:35;;;;;;;18.67;16.10;;;26.70;99.90;;;;;;6184630;23;20506;-79
2021/09/10 12:25:24;;;;;;;17.13;15.37;;;26.80;99.90;;;;;;6184683;23;20392;-80
2021/09/10 12:27:55;;;;;;;22.47;20.20;;;26.80;99.90;;;;;;6184378;23;20420;-71
2021/09/10 12:30:23;;;;;;;20.53;18.43;;;26.50;99.90;;;;;;6184205;23;20389;-71
2021/09/10 12:32:51;;;;;;;18.47;16.77;;;26.40;99.90;;;;;;6183962;23;20424;-71
2021/09/10 12:37:54;;;;;;;19.13;17.23;;;26.40;99.90;;;;;;6091223;23;20407;-70
2021/09/10 12:40:21;;;;;;;22.07;19.77;;;26.40;99.90;;;;;;6093475;23;20410;-71
2021/09/10 12:42:49;;;;;;;20.23;18.13;;;26.40;99.90;;;;;;6095248;23;20791;-71
2021/09/10 12:45:19;;;;;;;19.90;17.90;;;26.30;99.90;;;;;;6095014;23;20453;-72
2021/09/10 12:47:46;;;;;;;23.33;20.93;;;26.50;99.90;;;;;;6095300;23;20410;-71
2021/09/10 12:50:14;;;;;;;20.20;18.30;;;26.50;99.90;;;;;;6095495;23;20391;-71
2021/09/10 12:52:43;;;;;;;25.10;21.20;;;26.40;99.90;;;;;;6096112;23;20904;-72
2021/09/10 12:55:11;;;;;;;25.90;23.10;;;26.40;99.90;;;;;;6095293;23;20513;-72